sensor_id;sensor_type;location;lat;lon;timestamp;pressure;altitude;pressure_sealevel;temperature
24639;BMP180;1641;51.306;12.384;2023-05-07T00:01:11;100550.00;;;10.90
24639;BMP180;1641;51.306;12.384;2023-05-07T00:03:36;100558.00;;;10.80
24639;BMP180;1641;51.306;12.384;2023-05-07T00:06:03;100554.00;;;10.80
24639;BMP180;1641;51.306;12.384;2023-05-07T00:08:28;100542.00;;;11.00
24639;BMP180;1641;51.306;12.384;2023-05-07T00:10:53;100549.00;;;10.90
24639;BMP180;1641;51.306;12.384;2023-05-07T00:13:19;100552.00;;;10.90
24639;BMP180;1641;51.306;12.384;2023-05-07T00:15:47;100544.00;;;11.30
24639;BMP180;1641;51.306;12.384;2023-05-07T00:18:12;100547.00;;;11.60
24639;BMP180;1641;51.306;12.384;2023-05-07T00:20:38;100539.00;;;11.30
24639;BMP180;1641;51.306;12.384;2023-05-07T00:23:03;100541.00;;;11.10
24639;BMP180;1641;51.306;12.384;2023-05-07T00:25:28;100539.00;;;11.50
24639;BMP180;1641;51.306;12.384;2023-05-07T00:27:53;100542.00;;;11.70
24639;BMP180;1641;51.306;12.384;2023-05-07T00:30:19;100528.00;;;11.20
24639;BMP180;1641;51.306;12.384;2023-05-07T00:32:44;100534.00;;;11.30
24639;BMP180;1641;51.306;12.384;2023-05-07T00:35:11;100548.00;;;11.20
24639;BMP180;1641;51.306;12.384;2023-05-07T00:37:36;100546.00;;;11.00
24639;BMP180;1641;51.306;12.384;2023-05-07T00:40:05;100549.00;;;11.00
24639;BMP180;1641;51.306;12.384;2023-05-07T00:42:32;100555.00;;;10.90
24639;BMP180;1641;51.306;12.384;2023-05-07T00:44:58;100542.00;;;11.10
24639;BMP180;1641;51.306;12.384;2023-05-07T00:47:23;100546.00;;;11.50
24639;BMP180;1641;51.306;12.384;2023-05-07T00:49:50;100553.00;;;11.90
24639;BMP180;1641;51.306;12.384;2023-05-07T00:52:19;100550.00;;;11.10
24639;BMP180;1641;51.306;12.384;2023-05-07T00:54:49;100550.00;;;11.10
24639;BMP180;1641;51.306;12.384;2023-05-07T00:57:14;100555.00;;;11.50
24639;BMP180;1641;51.306;12.384;2023-05-07T00:59:41;100543.00;;;11.40
24639;BMP180;1641;51.306;12.384;2023-05-07T01:02:06;100558.00;;;11.20
24639;BMP180;1641;51.306;12.384;2023-05-07T01:04:32;100568.00;;;11.10
24639;BMP180;1641;51.306;12.384;2023-05-07T01:07:01;100557.00;;;11.20
24639;BMP180;1641;51.306;12.384;2023-05-07T01:09:28;100561.00;;;11.30
24639;BMP180;1641;51.306;12.384;2023-05-07T01:11:54;100555.00;;;11.30
24639;BMP180;1641;51.306;12.384;2023-05-07T01:14:20;100558.00;;;11.10
24639;BMP180;1641;51.306;12.384;2023-05-07T01:16:46;100558.00;;;10.70
24639;BMP180;1641;51.306;12.384;2023-05-07T01:19:12;100549.00;;;10.60
24639;BMP180;1641;51.306;12.384;2023-05-07T01:21:44;100543.00;;;10.60
24639;BMP180;1641;51.306;12.384;2023-05-07T01:24:11;100542.00;;;10.70
24639;BMP180;1641;51.306;12.384;2023-05-07T01:26:36;100537.00;;;10.70
24639;BMP180;1641;51.306;12.384;2023-05-07T01:29:02;100507.00;;;11.20
24639;BMP180;1641;51.306;12.384;2023-05-07T01:31:27;100540.00;;;11.40
24639;BMP180;1641;51.306;12.384;2023-05-07T01:33:53;100530.00;;;11.60
24639;BMP180;1641;51.306;12.384;2023-05-07T01:36:20;100550.00;;;11.40
24639;BMP180;1641;51.306;12.384;2023-05-07T01:38:45;100556.00;;;11.20
24639;BMP180;1641;51.306;12.384;2023-05-07T01:41:13;100556.00;;;11.20
24639;BMP180;1641;51.306;12.384;2023-05-07T01:43:40;100562.00;;;11.20
24639;BMP180;1641;51.306;12.384;2023-05-07T01:46:06;100558.00;;;10.80
24639;BMP180;1641;51.306;12.384;2023-05-07T01:48:37;100551.00;;;11.30
24639;BMP180;1641;51.306;12.384;2023-05-07T01:51:03;100552.00;;;10.80
24639;BMP180;1641;51.306;12.384;2023-05-07T01:53:28;100562.00;;;11.20
24639;BMP180;1641;51.306;12.384;2023-05-07T01:55:53;100553.00;;;10.60
24639;BMP180;1641;51.306;12.384;2023-05-07T01:58:19;100564.00;;;10.70
24639;BMP180;1641;51.306;12.384;2023-05-07T02:00:44;100566.00;;;11.00
24639;BMP180;1641;51.306;12.384;2023-05-07T02:03:12;100571.00;;;11.40
24639;BMP180;1641;51.306;12.384;2023-05-07T02:05:37;100564.00;;;11.50
24639;BMP180;1641;51.306;12.384;2023-05-07T02:08:03;100571.00;;;11.50
24639;BMP180;1641;51.306;12.384;2023-05-07T02:10:28;100569.00;;;11.50
24639;BMP180;1641;51.306;12.384;2023-05-07T02:12:53;100571.00;;;11.60
24639;BMP180;1641;51.306;12.384;2023-05-07T02:15:19;100570.00;;;11.40
24639;BMP180;1641;51.306;12.384;2023-05-07T02:18:01;100565.00;;;10.90
24639;BMP180;1641;51.306;12.384;2023-05-07T02:20:27;100552.00;;;11.20
24639;BMP180;1641;51.306;12.384;2023-05-07T02:22:52;100556.00;;;11.50
24639;BMP180;1641;51.306;12.384;2023-05-07T02:25:17;100555.00;;;10.70
24639;BMP180;1641;51.306;12.384;2023-05-07T02:27:42;100551.00;;;10.70
24639;BMP180;1641;51.306;12.384;2023-05-07T02:30:08;100568.00;;;10.90
24639;BMP180;1641;51.306;12.384;2023-05-07T02:32:33;100554.00;;;11.10
24639;BMP180;1641;51.306;12.384;2023-05-07T02:34:58;100561.00;;;11.10
24639;BMP180;1641;51.306;12.384;2023-05-07T02:37:24;100556.00;;;11.10
24639;BMP180;1641;51.306;12.384;2023-05-07T02:39:49;100552.00;;;11.10
24639;BMP180;1641;51.306;12.384;2023-05-07T02:42:15;100556.00;;;11.00
24639;BMP180;1641;51.306;12.384;2023-05-07T02:44:40;100574.00;;;11.00
24639;BMP180;1641;51.306;12.384;2023-05-07T02:47:05;100572.00;;;11.20
24639;BMP180;1641;51.306;12.384;2023-05-07T02:49:33;100575.00;;;10.90
24639;BMP180;1641;51.306;12.384;2023-05-07T02:51:58;100560.00;;;11.30
24639;BMP180;1641;51.306;12.384;2023-05-07T02:54:23;100569.00;;;11.20
24639;BMP180;1641;51.306;12.384;2023-05-07T02:56:49;100575.00;;;10.90
24639;BMP180;1641;51.306;12.384;2023-05-07T02:59:14;100569.00;;;11.20
24639;BMP180;1641;51.306;12.384;2023-05-07T03:01:39;100572.00;;;10.90
24639;BMP180;1641;51.306;12.384;2023-05-07T03:04:05;100570.00;;;11.10
24639;BMP180;1641;51.306;12.384;2023-05-07T03:06:30;100565.00;;;11.40
24639;BMP180;1641;51.306;12.384;2023-05-07T03:08:55;100570.00;;;11.40
24639;BMP180;1641;51.306;12.384;2023-05-07T03:11:20;100573.00;;;11.00
24639;BMP180;1641;51.306;12.384;2023-05-07T03:13:45;100565.00;;;11.30
24639;BMP180;1641;51.306;12.384;2023-05-07T03:16:11;100565.00;;;11.40
24639;BMP180;1641;51.306;12.384;2023-05-07T03:18:36;100562.00;;;11.50
24639;BMP180;1641;51.306;12.384;2023-05-07T03:21:01;100559.00;;;11.30
24639;BMP180;1641;51.306;12.384;2023-05-07T03:23:26;100561.00;;;11.30
24639;BMP180;1641;51.306;12.384;2023-05-07T03:25:52;100559.00;;;11.10
24639;BMP180;1641;51.306;12.384;2023-05-07T03:28:17;100567.00;;;11.00
24639;BMP180;1641;51.306;12.384;2023-05-07T03:30:42;100568.00;;;10.60
24639;BMP180;1641;51.306;12.384;2023-05-07T03:33:07;100573.00;;;11.00
24639;BMP180;1641;51.306;12.384;2023-05-07T03:35:32;100569.00;;;11.10
24639;BMP180;1641;51.306;12.384;2023-05-07T03:37:58;100572.00;;;11.20
24639;BMP180;1641;51.306;12.384;2023-05-07T03:40:23;100553.00;;;10.80
24639;BMP180;1641;51.306;12.384;2023-05-07T03:42:57;100581.00;;;10.80
24639;BMP180;1641;51.306;12.384;2023-05-07T03:45:24;100569.00;;;10.90
24639;BMP180;1641;51.306;12.384;2023-05-07T03:47:49;100547.00;;;11.00
24639;BMP180;1641;51.306;12.384;2023-05-07T03:50:15;100580.00;;;11.10
24639;BMP180;1641;51.306;12.384;2023-05-07T03:52:40;100589.00;;;11.50
24639;BMP180;1641;51.306;12.384;2023-05-07T03:55:05;100586.00;;;11.60
24639;BMP180;1641;51.306;12.384;2023-05-07T03:57:31;100592.00;;;11.40
24639;BMP180;1641;51.306;12.384;2023-05-07T03:59:56;100604.00;;;11.50
24639;BMP180;1641;51.306;12.384;2023-05-07T04:02:21;100595.00;;;11.30
24639;BMP180;1641;51.306;12.384;2023-05-07T04:04:48;100599.00;;;11.00
24639;BMP180;1641;51.306;12.384;2023-05-07T04:07:14;100577.00;;;10.80
24639;BMP180;1641;51.306;12.384;2023-05-07T04:09:40;100588.00;;;11.00
24639;BMP180;1641;51.306;12.384;2023-05-07T04:12:05;100607.00;;;10.50
24639;BMP180;1641;51.306;12.384;2023-05-07T04:14:30;100562.00;;;11.00
24639;BMP180;1641;51.306;12.384;2023-05-07T04:16:57;100593.00;;;11.50
24639;BMP180;1641;51.306;12.384;2023-05-07T04:19:23;100596.00;;;11.10
24639;BMP180;1641;51.306;12.384;2023-05-07T04:21:48;100595.00;;;10.90
24639;BMP180;1641;51.306;12.384;2023-05-07T04:24:16;100591.00;;;11.00
24639;BMP180;1641;51.306;12.384;2023-05-07T04:26:42;100594.00;;;11.60
24639;BMP180;1641;51.306;12.384;2023-05-07T04:29:07;100593.00;;;11.50
24639;BMP180;1641;51.306;12.384;2023-05-07T04:31:33;100598.00;;;11.30
24639;BMP180;1641;51.306;12.384;2023-05-07T04:33:58;100609.00;;;11.50
24639;BMP180;1641;51.306;12.384;2023-05-07T04:36:23;100608.00;;;11.50
24639;BMP180;1641;51.306;12.384;2023-05-07T04:38:52;100601.00;;;11.10
24639;BMP180;1641;51.306;12.384;2023-05-07T04:41:17;100621.00;;;11.20
24639;BMP180;1641;51.306;12.384;2023-05-07T04:43:43;100606.00;;;11.20
24639;BMP180;1641;51.306;12.384;2023-05-07T04:46:08;100623.00;;;11.40
24639;BMP180;1641;51.306;12.384;2023-05-07T04:48:33;100628.00;;;11.50
24639;BMP180;1641;51.306;12.384;2023-05-07T04:50:59;100629.00;;;11.10
24639;BMP180;1641;51.306;12.384;2023-05-07T04:53:30;100621.00;;;11.10
24639;BMP180;1641;51.306;12.384;2023-05-07T04:55:56;100622.00;;;11.20
24639;BMP180;1641;51.306;12.384;2023-05-07T04:58:22;100634.00;;;11.20
24639;BMP180;1641;51.306;12.384;2023-05-07T05:00:47;100637.00;;;11.50
24639;BMP180;1641;51.306;12.384;2023-05-07T05:03:13;100629.00;;;11.60
24639;BMP180;1641;51.306;12.384;2023-05-07T05:05:38;100640.00;;;11.70
24639;BMP180;1641;51.306;12.384;2023-05-07T05:08:03;100636.00;;;11.90
24639;BMP180;1641;51.306;12.384;2023-05-07T05:10:28;100595.00;;;12.10
24639;BMP180;1641;51.306;12.384;2023-05-07T05:12:54;100636.00;;;12.30
24639;BMP180;1641;51.306;12.384;2023-05-07T05:15:19;100636.00;;;11.40
24639;BMP180;1641;51.306;12.384;2023-05-07T05:17:44;100630.00;;;11.00
24639;BMP180;1641;51.306;12.384;2023-05-07T05:20:10;100627.00;;;10.70
24639;BMP180;1641;51.306;12.384;2023-05-07T05:22:36;100635.00;;;11.00
24639;BMP180;1641;51.306;12.384;2023-05-07T05:25:02;100648.00;;;11.30
24639;BMP180;1641;51.306;12.384;2023-05-07T05:27:28;100639.00;;;11.60
24639;BMP180;1641;51.306;12.384;2023-05-07T05:29:53;100647.00;;;11.10
24639;BMP180;1641;51.306;12.384;2023-05-07T05:32:19;100640.00;;;10.80
24639;BMP180;1641;51.306;12.384;2023-05-07T05:34:44;100642.00;;;11.40
24639;BMP180;1641;51.306;12.384;2023-05-07T05:37:09;100627.00;;;11.50
24639;BMP180;1641;51.306;12.384;2023-05-07T05:39:35;100649.00;;;10.90
24639;BMP180;1641;51.306;12.384;2023-05-07T05:42:00;100655.00;;;10.90
24639;BMP180;1641;51.306;12.384;2023-05-07T05:44:26;100653.00;;;10.60
24639;BMP180;1641;51.306;12.384;2023-05-07T05:46:51;100648.00;;;11.10
24639;BMP180;1641;51.306;12.384;2023-05-07T05:49:16;100653.00;;;10.60
24639;BMP180;1641;51.306;12.384;2023-05-07T05:51:42;100660.00;;;10.70
24639;BMP180;1641;51.306;12.384;2023-05-07T05:54:08;100665.00;;;11.00
24639;BMP180;1641;51.306;12.384;2023-05-07T05:56:33;100668.00;;;11.10
24639;BMP180;1641;51.306;12.384;2023-05-07T05:58:59;100676.00;;;11.20
24639;BMP180;1641;51.306;12.384;2023-05-07T06:01:24;100673.00;;;11.70
24639;BMP180;1641;51.306;12.384;2023-05-07T06:03:50;100671.00;;;12.30
24639;BMP180;1641;51.306;12.384;2023-05-07T06:06:15;100668.00;;;11.30
24639;BMP180;1641;51.306;12.384;2023-05-07T06:08:40;100676.00;;;11.10
24639;BMP180;1641;51.306;12.384;2023-05-07T06:11:06;100670.00;;;10.70
24639;BMP180;1641;51.306;12.384;2023-05-07T06:13:31;100666.00;;;11.00
24639;BMP180;1641;51.306;12.384;2023-05-07T06:15:56;100649.00;;;11.50
24639;BMP180;1641;51.306;12.384;2023-05-07T06:18:21;100674.00;;;11.30
24639;BMP180;1641;51.306;12.384;2023-05-07T06:20:47;100666.00;;;11.00
24639;BMP180;1641;51.306;12.384;2023-05-07T06:23:13;100671.00;;;11.50
24639;BMP180;1641;51.306;12.384;2023-05-07T06:25:39;100679.00;;;11.90
24639;BMP180;1641;51.306;12.384;2023-05-07T06:28:05;100649.00;;;11.40
24639;BMP180;1641;51.306;12.384;2023-05-07T06:30:30;100535.00;;;11.10
24639;BMP180;1641;51.306;12.384;2023-05-07T06:32:56;100660.00;;;11.50
24639;BMP180;1641;51.306;12.384;2023-05-07T06:35:21;100676.00;;;11.00
24639;BMP180;1641;51.306;12.384;2023-05-07T06:37:46;100654.00;;;11.20
24639;BMP180;1641;51.306;12.384;2023-05-07T06:40:11;100649.00;;;11.60
24639;BMP180;1641;51.306;12.384;2023-05-07T06:42:37;100675.00;;;11.70
24639;BMP180;1641;51.306;12.384;2023-05-07T06:45:03;100675.00;;;11.90
24639;BMP180;1641;51.306;12.384;2023-05-07T06:47:29;100689.00;;;12.30
24639;BMP180;1641;51.306;12.384;2023-05-07T06:49:54;100702.00;;;12.60
24639;BMP180;1641;51.306;12.384;2023-05-07T06:52:19;100630.00;;;12.30
24639;BMP180;1641;51.306;12.384;2023-05-07T06:54:45;100696.00;;;12.00
24639;BMP180;1641;51.306;12.384;2023-05-07T06:57:10;100661.00;;;11.70
24639;BMP180;1641;51.306;12.384;2023-05-07T06:59:35;100698.00;;;11.50
24639;BMP180;1641;51.306;12.384;2023-05-07T07:02:01;100706.00;;;11.40
24639;BMP180;1641;51.306;12.384;2023-05-07T07:04:26;100710.00;;;11.20
24639;BMP180;1641;51.306;12.384;2023-05-07T07:06:53;100675.00;;;11.40
24639;BMP180;1641;51.306;12.384;2023-05-07T07:09:18;100708.00;;;11.70
24639;BMP180;1641;51.306;12.384;2023-05-07T07:11:44;100672.00;;;11.30
24639;BMP180;1641;51.306;12.384;2023-05-07T07:14:09;100707.00;;;11.20
24639;BMP180;1641;51.306;12.384;2023-05-07T07:16:34;100689.00;;;11.00
24639;BMP180;1641;51.306;12.384;2023-05-07T07:18:59;100694.00;;;11.10
24639;BMP180;1641;51.306;12.384;2023-05-07T07:21:25;100689.00;;;11.50
24639;BMP180;1641;51.306;12.384;2023-05-07T07:23:50;100687.00;;;11.50
24639;BMP180;1641;51.306;12.384;2023-05-07T07:26:15;100688.00;;;12.00
24639;BMP180;1641;51.306;12.384;2023-05-07T07:28:44;100677.00;;;12.20
24639;BMP180;1641;51.306;12.384;2023-05-07T07:31:10;100687.00;;;11.60
24639;BMP180;1641;51.306;12.384;2023-05-07T07:33:36;100662.00;;;11.10
24639;BMP180;1641;51.306;12.384;2023-05-07T07:36:01;100700.00;;;11.50
24639;BMP180;1641;51.306;12.384;2023-05-07T07:38:26;100699.00;;;11.80
24639;BMP180;1641;51.306;12.384;2023-05-07T07:40:52;100707.00;;;11.60
24639;BMP180;1641;51.306;12.384;2023-05-07T07:43:17;100705.00;;;11.80
24639;BMP180;1641;51.306;12.384;2023-05-07T07:45:42;100713.00;;;12.20
24639;BMP180;1641;51.306;12.384;2023-05-07T07:48:08;100714.00;;;12.50
24639;BMP180;1641;51.306;12.384;2023-05-07T07:50:33;100707.00;;;12.40
24639;BMP180;1641;51.306;12.384;2023-05-07T07:52:58;100716.00;;;12.30
24639;BMP180;1641;51.306;12.384;2023-05-07T07:55:23;100712.00;;;12.70
24639;BMP180;1641;51.306;12.384;2023-05-07T07:57:49;100719.00;;;12.40
24639;BMP180;1641;51.306;12.384;2023-05-07T08:00:15;100718.00;;;12.50
24639;BMP180;1641;51.306;12.384;2023-05-07T08:02:41;100717.00;;;11.60
24639;BMP180;1641;51.306;12.384;2023-05-07T08:05:07;100723.00;;;12.30
24639;BMP180;1641;51.306;12.384;2023-05-07T08:07:32;100722.00;;;12.60
24639;BMP180;1641;51.306;12.384;2023-05-07T08:09:57;100710.00;;;12.30
24639;BMP180;1641;51.306;12.384;2023-05-07T08:12:23;100708.00;;;12.10
24639;BMP180;1641;51.306;12.384;2023-05-07T08:14:48;100665.00;;;12.10
24639;BMP180;1641;51.306;12.384;2023-05-07T08:17:13;100723.00;;;11.90
24639;BMP180;1641;51.306;12.384;2023-05-07T08:19:41;100712.00;;;12.70
24639;BMP180;1641;51.306;12.384;2023-05-07T08:22:06;100731.00;;;12.90
24639;BMP180;1641;51.306;12.384;2023-05-07T08:24:32;100739.00;;;13.00
24639;BMP180;1641;51.306;12.384;2023-05-07T08:26:57;100721.00;;;13.20
24639;BMP180;1641;51.306;12.384;2023-05-07T08:29:22;100736.00;;;12.90
24639;BMP180;1641;51.306;12.384;2023-05-07T08:31:47;100737.00;;;11.80
24639;BMP180;1641;51.306;12.384;2023-05-07T08:34:13;100736.00;;;11.90
24639;BMP180;1641;51.306;12.384;2023-05-07T08:36:38;100700.00;;;11.80
24639;BMP180;1641;51.306;12.384;2023-05-07T08:39:03;100699.00;;;11.80
24639;BMP180;1641;51.306;12.384;2023-05-07T08:41:29;100744.00;;;11.80
24639;BMP180;1641;51.306;12.384;2023-05-07T08:43:57;100747.00;;;11.40
24639;BMP180;1641;51.306;12.384;2023-05-07T08:46:24;100755.00;;;11.80
24639;BMP180;1641;51.306;12.384;2023-05-07T08:48:51;100669.00;;;11.80
24639;BMP180;1641;51.306;12.384;2023-05-07T08:51:20;100730.00;;;12.50
24639;BMP180;1641;51.306;12.384;2023-05-07T08:53:46;100706.00;;;12.80
24639;BMP180;1641;51.306;12.384;2023-05-07T08:56:13;100759.00;;;12.90
24639;BMP180;1641;51.306;12.384;2023-05-07T08:58:40;100755.00;;;12.50
24639;BMP180;1641;51.306;12.384;2023-05-07T09:01:08;100747.00;;;12.60
24639;BMP180;1641;51.306;12.384;2023-05-07T09:03:35;100752.00;;;13.50
24639;BMP180;1641;51.306;12.384;2023-05-07T09:06:00;100753.00;;;13.00
24639;BMP180;1641;51.306;12.384;2023-05-07T09:08:28;100712.00;;;12.50
24639;BMP180;1641;51.306;12.384;2023-05-07T09:10:53;100699.00;;;12.90
24639;BMP180;1641;51.306;12.384;2023-05-07T09:13:19;100768.00;;;12.60
24639;BMP180;1641;51.306;12.384;2023-05-07T09:15:45;100755.00;;;12.10
24639;BMP180;1641;51.306;12.384;2023-05-07T09:18:10;100768.00;;;12.10
24639;BMP180;1641;51.306;12.384;2023-05-07T09:20:37;100758.00;;;12.10
24639;BMP180;1641;51.306;12.384;2023-05-07T09:23:02;100751.00;;;12.50
24639;BMP180;1641;51.306;12.384;2023-05-07T09:25:29;100752.00;;;12.90
24639;BMP180;1641;51.306;12.384;2023-05-07T09:27:54;100779.00;;;12.70
24639;BMP180;1641;51.306;12.384;2023-05-07T09:30:20;100754.00;;;12.90
24639;BMP180;1641;51.306;12.384;2023-05-07T09:32:45;100766.00;;;13.20
24639;BMP180;1641;51.306;12.384;2023-05-07T09:35:15;100760.00;;;12.60
24639;BMP180;1641;51.306;12.384;2023-05-07T09:37:41;100769.00;;;12.60
24639;BMP180;1641;51.306;12.384;2023-05-07T09:40:07;100768.00;;;12.20
24639;BMP180;1641;51.306;12.384;2023-05-07T09:42:33;100765.00;;;12.20
24639;BMP180;1641;51.306;12.384;2023-05-07T09:44:59;100767.00;;;12.70
24639;BMP180;1641;51.306;12.384;2023-05-07T09:47:24;100770.00;;;12.70
24639;BMP180;1641;51.306;12.384;2023-05-07T09:49:54;100771.00;;;12.60
24639;BMP180;1641;51.306;12.384;2023-05-07T09:52:20;100767.00;;;12.70
24639;BMP180;1641;51.306;12.384;2023-05-07T09:54:46;100772.00;;;13.20
24639;BMP180;1641;51.306;12.384;2023-05-07T09:57:12;100775.00;;;12.20
24639;BMP180;1641;51.306;12.384;2023-05-07T09:59:42;100772.00;;;12.20
24639;BMP180;1641;51.306;12.384;2023-05-07T10:02:09;100744.00;;;12.50
24639;BMP180;1641;51.306;12.384;2023-05-07T10:04:35;100767.00;;;12.40
24639;BMP180;1641;51.306;12.384;2023-05-07T10:07:03;100770.00;;;12.60
24639;BMP180;1641;51.306;12.384;2023-05-07T10:09:28;100765.00;;;12.30
24639;BMP180;1641;51.306;12.384;2023-05-07T10:11:56;100768.00;;;12.40
24639;BMP180;1641;51.306;12.384;2023-05-07T10:14:22;100734.00;;;12.20
24639;BMP180;1641;51.306;12.384;2023-05-07T10:16:48;100758.00;;;12.30
24639;BMP180;1641;51.306;12.384;2023-05-07T10:19:14;100736.00;;;12.40
24639;BMP180;1641;51.306;12.384;2023-05-07T10:21:44;100769.00;;;12.20
24639;BMP180;1641;51.306;12.384;2023-05-07T10:24:19;100760.00;;;12.10
24639;BMP180;1641;51.306;12.384;2023-05-07T10:26:48;100774.00;;;12.80
24639;BMP180;1641;51.306;12.384;2023-05-07T10:34:42;100779.00;;;13.20
24639;BMP180;1641;51.306;12.384;2023-05-07T10:37:09;100776.00;;;13.60
24639;BMP180;1641;51.306;12.384;2023-05-07T10:39:35;100787.00;;;12.60
24639;BMP180;1641;51.306;12.384;2023-05-07T10:42:11;100785.00;;;12.90
24639;BMP180;1641;51.306;12.384;2023-05-07T10:44:36;100782.00;;;13.70
24639;BMP180;1641;51.306;12.384;2023-05-07T10:47:05;100776.00;;;13.40
24639;BMP180;1641;51.306;12.384;2023-05-07T10:49:31;100728.00;;;12.30
24639;BMP180;1641;51.306;12.384;2023-05-07T10:52:19;100789.00;;;12.30
24639;BMP180;1641;51.306;12.384;2023-05-07T10:57:52;100785.00;;;13.80
24639;BMP180;1641;51.306;12.384;2023-05-07T11:03:07;100780.00;;;12.40
24639;BMP180;1641;51.306;12.384;2023-05-07T11:05:33;100783.00;;;12.30
24639;BMP180;1641;51.306;12.384;2023-05-07T11:08:17;100791.00;;;12.20
24639;BMP180;1641;51.306;12.384;2023-05-07T11:10:53;100782.00;;;12.80
24639;BMP180;1641;51.306;12.384;2023-05-07T11:16:36;100763.00;;;12.60
24639;BMP180;1641;51.306;12.384;2023-05-07T11:19:53;100714.00;;;13.30
24639;BMP180;1641;51.306;12.384;2023-05-07T11:24:59;100763.00;;;13.20
24639;BMP180;1641;51.306;12.384;2023-05-07T11:27:26;100784.00;;;13.50
24639;BMP180;1641;51.306;12.384;2023-05-07T11:30:00;100716.00;;;12.80
24639;BMP180;1641;51.306;12.384;2023-05-07T11:32:31;100766.00;;;12.90
24639;BMP180;1641;51.306;12.384;2023-05-07T11:35:15;100781.00;;;13.70
24639;BMP180;1641;51.306;12.384;2023-05-07T11:37:44;100788.00;;;13.30
24639;BMP180;1641;51.306;12.384;2023-05-07T11:40:11;100786.00;;;13.30
24639;BMP180;1641;51.306;12.384;2023-05-07T11:42:54;100789.00;;;12.90
24639;BMP180;1641;51.306;12.384;2023-05-07T11:45:24;100784.00;;;13.00
24639;BMP180;1641;51.306;12.384;2023-05-07T11:47:52;100782.00;;;13.70
24639;BMP180;1641;51.306;12.384;2023-05-07T11:50:26;100739.00;;;13.70
24639;BMP180;1641;51.306;12.384;2023-05-07T11:52:52;100784.00;;;14.00
24639;BMP180;1641;51.306;12.384;2023-05-07T11:55:20;100784.00;;;13.60
24639;BMP180;1641;51.306;12.384;2023-05-07T11:57:56;100780.00;;;12.80
24639;BMP180;1641;51.306;12.384;2023-05-07T12:00:21;100748.00;;;13.50
24639;BMP180;1641;51.306;12.384;2023-05-07T12:02:46;100749.00;;;14.20
24639;BMP180;1641;51.306;12.384;2023-05-07T12:05:28;100771.00;;;14.20
24639;BMP180;1641;51.306;12.384;2023-05-07T12:08:13;100788.00;;;13.90
24639;BMP180;1641;51.306;12.384;2023-05-07T12:10:43;100789.00;;;14.20
24639;BMP180;1641;51.306;12.384;2023-05-07T12:13:15;100790.00;;;13.70
24639;BMP180;1641;51.306;12.384;2023-05-07T12:15:56;100747.00;;;14.20
24639;BMP180;1641;51.306;12.384;2023-05-07T12:18:27;100786.00;;;14.50
24639;BMP180;1641;51.306;12.384;2023-05-07T12:20:56;100772.00;;;14.70
24639;BMP180;1641;51.306;12.384;2023-05-07T12:23:25;100740.00;;;13.80
24639;BMP180;1641;51.306;12.384;2023-05-07T12:25:51;100779.00;;;13.60
24639;BMP180;1641;51.306;12.384;2023-05-07T12:28:48;100776.00;;;13.50
24639;BMP180;1641;51.306;12.384;2023-05-07T12:31:18;100768.00;;;14.40
24639;BMP180;1641;51.306;12.384;2023-05-07T12:33:43;100771.00;;;14.30
24639;BMP180;1641;51.306;12.384;2023-05-07T12:36:38;100775.00;;;13.90
24639;BMP180;1641;51.306;12.384;2023-05-07T12:39:07;100768.00;;;13.80
24639;BMP180;1641;51.306;12.384;2023-05-07T12:41:55;100765.00;;;14.10
24639;BMP180;1641;51.306;12.384;2023-05-07T12:44:31;100699.00;;;14.10
24639;BMP180;1641;51.306;12.384;2023-05-07T12:47:02;100708.00;;;14.60
24639;BMP180;1641;51.306;12.384;2023-05-07T12:49:28;100770.00;;;14.40
24639;BMP180;1641;51.306;12.384;2023-05-07T12:51:57;100768.00;;;14.50
24639;BMP180;1641;51.306;12.384;2023-05-07T12:54:37;100749.00;;;14.30
24639;BMP180;1641;51.306;12.384;2023-05-07T12:57:10;100778.00;;;14.30
24639;BMP180;1641;51.306;12.384;2023-05-07T12:59:57;100734.00;;;13.40
24639;BMP180;1641;51.306;12.384;2023-05-07T13:02:32;100737.00;;;14.30
24639;BMP180;1641;51.306;12.384;2023-05-07T13:05:10;100720.00;;;14.70
24639;BMP180;1641;51.306;12.384;2023-05-07T13:07:36;100774.00;;;14.30
24639;BMP180;1641;51.306;12.384;2023-05-07T13:10:05;100775.00;;;13.90
24639;BMP180;1641;51.306;12.384;2023-05-07T13:12:40;100755.00;;;13.70
24639;BMP180;1641;51.306;12.384;2023-05-07T13:15:06;100771.00;;;13.70
24639;BMP180;1641;51.306;12.384;2023-05-07T13:17:31;100763.00;;;14.30
24639;BMP180;1641;51.306;12.384;2023-05-07T13:20:16;100760.00;;;14.40
24639;BMP180;1641;51.306;12.384;2023-05-07T13:22:42;100743.00;;;15.00
24639;BMP180;1641;51.306;12.384;2023-05-07T13:25:29;100753.00;;;15.30
24639;BMP180;1641;51.306;12.384;2023-05-07T13:27:54;100712.00;;;14.60
24639;BMP180;1641;51.306;12.384;2023-05-07T13:30:19;100760.00;;;15.00
24639;BMP180;1641;51.306;12.384;2023-05-07T13:32:45;100760.00;;;14.30
24639;BMP180;1641;51.306;12.384;2023-05-07T13:35:12;100758.00;;;14.80
24639;BMP180;1641;51.306;12.384;2023-05-07T13:37:38;100758.00;;;14.80
24639;BMP180;1641;51.306;12.384;2023-05-07T13:40:03;100738.00;;;14.30
24639;BMP180;1641;51.306;12.384;2023-05-07T13:42:29;100756.00;;;14.20
24639;BMP180;1641;51.306;12.384;2023-05-07T13:44:56;100755.00;;;14.40
24639;BMP180;1641;51.306;12.384;2023-05-07T13:47:22;100733.00;;;14.50
24639;BMP180;1641;51.306;12.384;2023-05-07T13:49:47;100761.00;;;15.10
24639;BMP180;1641;51.306;12.384;2023-05-07T13:55:30;100763.00;;;14.20
24639;BMP180;1641;51.306;12.384;2023-05-07T13:57:57;100754.00;;;14.20
24639;BMP180;1641;51.306;12.384;2023-05-07T14:00:27;100774.00;;;13.90
24639;BMP180;1641;51.306;12.384;2023-05-07T14:02:53;100761.00;;;13.80
24639;BMP180;1641;51.306;12.384;2023-05-07T14:05:18;100761.00;;;14.10
24639;BMP180;1641;51.306;12.384;2023-05-07T14:07:43;100755.00;;;14.70
24639;BMP180;1641;51.306;12.384;2023-05-07T14:10:09;100744.00;;;14.40
24639;BMP180;1641;51.306;12.384;2023-05-07T14:12:36;100757.00;;;14.70
24639;BMP180;1641;51.306;12.384;2023-05-07T14:15:14;100734.00;;;14.80
24639;BMP180;1641;51.306;12.384;2023-05-07T14:17:41;100738.00;;;15.10